sensor_id;sensor_type;location;lat;lon;timestamp;P1;durP1;ratioP1;P2;durP2;ratioP2
57345;SDS011;43181;50.974;18.244;2022-10-31T00:00:20;4.20;;;1.60;;
57345;SDS011;43181;50.974;18.244;2022-10-31T00:02:46;22.40;;;3.80;;
57345;SDS011;43181;50.974;18.244;2022-10-31T00:05:11;12.60;;;5.50;;
57345;SDS011;43181;50.974;18.244;2022-10-31T00:07:37;3.30;;;2.70;;
57345;SDS011;43181;50.974;18.244;2022-10-31T00:10:02;2.80;;;2.20;;
57345;SDS011;43181;50.974;18.244;2022-10-31T00:12:31;2.90;;;2.50;;
57345;SDS011;43181;50.974;18.244;2022-10-31T00:14:57;1.50;;;1.40;;
57345;SDS011;43181;50.974;18.244;2022-10-31T00:17:23;2.70;;;2.30;;
57345;SDS011;43181;50.974;18.244;2022-10-31T00:19:49;0.90;;;0.90;;
57345;SDS011;43181;50.974;18.244;2022-10-31T00:22:14;2.50;;;2.30;;
57345;SDS011;43181;50.974;18.244;2022-10-31T00:24:39;2.50;;;1.80;;
57345;SDS011;43181;50.974;18.244;2022-10-31T00:27:05;2.60;;;2.40;;
57345;SDS011;43181;50.974;18.244;2022-10-31T00:29:30;4.00;;;3.70;;
57345;SDS011;43181;50.974;18.244;2022-10-31T00:31:56;4.40;;;3.20;;
57345;SDS011;43181;50.974;18.244;2022-10-31T00:34:21;3.10;;;2.80;;
57345;SDS011;43181;50.974;18.244;2022-10-31T00:36:46;7.10;;;2.30;;
57345;SDS011;43181;50.974;18.244;2022-10-31T00:39:12;6.90;;;3.50;;
57345;SDS011;43181;50.974;18.244;2022-10-31T00:41:37;8.90;;;2.80;;
57345;SDS011;43181;50.974;18.244;2022-10-31T00:44:03;2.30;;;2.00;;
57345;SDS011;43181;50.974;18.244;2022-10-31T00:46:28;2.90;;;2.10;;
57345;SDS011;43181;50.974;18.244;2022-10-31T00:48:54;7.90;;;2.30;;
57345;SDS011;43181;50.974;18.244;2022-10-31T00:51:19;3.80;;;2.70;;
57345;SDS011;43181;50.974;18.244;2022-10-31T00:53:45;6.20;;;2.00;;
57345;SDS011;43181;50.974;18.244;2022-10-31T00:56:10;5.50;;;3.00;;
57345;SDS011;43181;50.974;18.244;2022-10-31T00:58:36;8.50;;;3.80;;
57345;SDS011;43181;50.974;18.244;2022-10-31T01:01:02;4.40;;;3.80;;
57345;SDS011;43181;50.974;18.244;2022-10-31T01:03:29;4.80;;;3.50;;
57345;SDS011;43181;50.974;18.244;2022-10-31T01:08:29;2.90;;;1.90;;
57345;SDS011;43181;50.974;18.244;2022-10-31T01:10:59;2.10;;;1.90;;
57345;SDS011;43181;50.974;18.244;2022-10-31T01:13:24;2.40;;;1.70;;
57345;SDS011;43181;50.974;18.244;2022-10-31T01:15:54;7.70;;;2.70;;
57345;SDS011;43181;50.974;18.244;2022-10-31T01:18:21;4.10;;;2.80;;
57345;SDS011;43181;50.974;18.244;2022-10-31T01:20:46;4.20;;;3.20;;
57345;SDS011;43181;50.974;18.244;2022-10-31T01:23:12;6.30;;;4.70;;
57345;SDS011;43181;50.974;18.244;2022-10-31T01:25:37;9.50;;;3.90;;
57345;SDS011;43181;50.974;18.244;2022-10-31T01:28:03;4.30;;;2.90;;
57345;SDS011;43181;50.974;18.244;2022-10-31T01:30:28;2.80;;;2.10;;
57345;SDS011;43181;50.974;18.244;2022-10-31T01:32:54;2.40;;;2.20;;
57345;SDS011;43181;50.974;18.244;2022-10-31T01:35:19;3.00;;;2.50;;
57345;SDS011;43181;50.974;18.244;2022-10-31T01:37:44;18.10;;;5.20;;
57345;SDS011;43181;50.974;18.244;2022-10-31T01:40:10;13.80;;;3.70;;
57345;SDS011;43181;50.974;18.244;2022-10-31T01:42:35;7.70;;;3.10;;
57345;SDS011;43181;50.974;18.244;2022-10-31T01:45:01;11.80;;;3.60;;
57345;SDS011;43181;50.974;18.244;2022-10-31T01:47:30;7.50;;;2.50;;
57345;SDS011;43181;50.974;18.244;2022-10-31T01:50:06;2.40;;;2.20;;
57345;SDS011;43181;50.974;18.244;2022-10-31T01:52:37;3.90;;;2.20;;
57345;SDS011;43181;50.974;18.244;2022-10-31T01:55:09;6.90;;;2.60;;
57345;SDS011;43181;50.974;18.244;2022-10-31T01:57:40;11.60;;;1.90;;
57345;SDS011;43181;50.974;18.244;2022-10-31T02:00:08;5.10;;;2.30;;
57345;SDS011;43181;50.974;18.244;2022-10-31T02:02:34;2.70;;;2.50;;
57345;SDS011;43181;50.974;18.244;2022-10-31T02:05:04;9.00;;;2.40;;
57345;SDS011;43181;50.974;18.244;2022-10-31T02:07:39;2.70;;;2.50;;
57345;SDS011;43181;50.974;18.244;2022-10-31T02:10:08;3.10;;;2.60;;
57345;SDS011;43181;50.974;18.244;2022-10-31T02:12:35;3.40;;;2.20;;
57345;SDS011;43181;50.974;18.244;2022-10-31T02:15:06;7.40;;;3.10;;
57345;SDS011;43181;50.974;18.244;2022-10-31T02:17:33;3.50;;;2.50;;
57345;SDS011;43181;50.974;18.244;2022-10-31T02:25:32;8.70;;;3.80;;
57345;SDS011;43181;50.974;18.244;2022-10-31T02:31:26;2.60;;;2.30;;
57345;SDS011;43181;50.974;18.244;2022-10-31T02:33:57;8.90;;;3.10;;
57345;SDS011;43181;50.974;18.244;2022-10-31T02:36:43;5.40;;;3.60;;
57345;SDS011;43181;50.974;18.244;2022-10-31T02:39:41;7.90;;;4.50;;
57345;SDS011;43181;50.974;18.244;2022-10-31T02:44:50;9.10;;;4.30;;
57345;SDS011;43181;50.974;18.244;2022-10-31T02:47:32;8.10;;;4.10;;
57345;SDS011;43181;50.974;18.244;2022-10-31T02:50:00;6.20;;;3.70;;
57345;SDS011;43181;50.974;18.244;2022-10-31T02:52:28;7.10;;;3.20;;
57345;SDS011;43181;50.974;18.244;2022-10-31T02:54:55;7.10;;;2.80;;
57345;SDS011;43181;50.974;18.244;2022-10-31T02:57:31;2.90;;;2.60;;
57345;SDS011;43181;50.974;18.244;2022-10-31T03:00:00;2.10;;;1.70;;
57345;SDS011;43181;50.974;18.244;2022-10-31T03:02:44;3.60;;;3.00;;
57345;SDS011;43181;50.974;18.244;2022-10-31T03:05:22;4.10;;;2.80;;
57345;SDS011;43181;50.974;18.244;2022-10-31T03:10:55;5.80;;;3.40;;
57345;SDS011;43181;50.974;18.244;2022-10-31T03:13:26;1.80;;;1.50;;
57345;SDS011;43181;50.974;18.244;2022-10-31T03:18:42;10.90;;;1.80;;
57345;SDS011;43181;50.974;18.244;2022-10-31T03:21:14;5.30;;;2.60;;
57345;SDS011;43181;50.974;18.244;2022-10-31T03:23:43;2.70;;;2.10;;
57345;SDS011;43181;50.974;18.244;2022-10-31T03:26:10;3.00;;;2.80;;
57345;SDS011;43181;50.974;18.244;2022-10-31T03:28:39;2.40;;;2.20;;
57345;SDS011;43181;50.974;18.244;2022-10-31T03:31:10;1.60;;;1.60;;
57345;SDS011;43181;50.974;18.244;2022-10-31T03:33:38;4.40;;;3.20;;
57345;SDS011;43181;50.974;18.244;2022-10-31T03:36:04;4.80;;;2.60;;
57345;SDS011;43181;50.974;18.244;2022-10-31T03:38:33;5.10;;;3.50;;
57345;SDS011;43181;50.974;18.244;2022-10-31T03:41:01;5.80;;;2.40;;
57345;SDS011;43181;50.974;18.244;2022-10-31T03:43:30;3.40;;;2.30;;
57345;SDS011;43181;50.974;18.244;2022-10-31T03:45:58;2.40;;;2.10;;
57345;SDS011;43181;50.974;18.244;2022-10-31T03:48:24;3.10;;;2.70;;
57345;SDS011;43181;50.974;18.244;2022-10-31T03:50:58;8.80;;;4.30;;
57345;SDS011;43181;50.974;18.244;2022-10-31T03:53:38;5.10;;;2.50;;
57345;SDS011;43181;50.974;18.244;2022-10-31T03:58:40;4.60;;;2.90;;
57345;SDS011;43181;50.974;18.244;2022-10-31T04:01:11;9.00;;;4.30;;
57345;SDS011;43181;50.974;18.244;2022-10-31T04:03:39;2.90;;;1.90;;
57345;SDS011;43181;50.974;18.244;2022-10-31T04:06:08;4.60;;;2.70;;
57345;SDS011;43181;50.974;18.244;2022-10-31T04:08:36;3.40;;;3.00;;
57345;SDS011;43181;50.974;18.244;2022-10-31T04:11:05;3.90;;;3.00;;
57345;SDS011;43181;50.974;18.244;2022-10-31T04:13:33;4.40;;;3.30;;
57345;SDS011;43181;50.974;18.244;2022-10-31T04:15:59;4.90;;;3.70;;
57345;SDS011;43181;50.974;18.244;2022-10-31T04:18:25;3.30;;;2.70;;
57345;SDS011;43181;50.974;18.244;2022-10-31T04:20:59;5.50;;;3.50;;
57345;SDS011;43181;50.974;18.244;2022-10-31T04:23:29;2.60;;;2.30;;
57345;SDS011;43181;50.974;18.244;2022-10-31T04:25:55;3.00;;;2.80;;
57345;SDS011;43181;50.974;18.244;2022-10-31T04:28:20;4.00;;;2.50;;
57345;SDS011;43181;50.974;18.244;2022-10-31T04:30:48;4.60;;;2.50;;
57345;SDS011;43181;50.974;18.244;2022-10-31T04:33:14;2.30;;;2.00;;
57345;SDS011;43181;50.974;18.244;2022-10-31T04:35:40;3.80;;;3.50;;
57345;SDS011;43181;50.974;18.244;2022-10-31T04:38:06;5.30;;;3.10;;
57345;SDS011;43181;50.974;18.244;2022-10-31T04:40:31;5.30;;;3.60;;
57345;SDS011;43181;50.974;18.244;2022-10-31T04:42:57;2.90;;;2.40;;
57345;SDS011;43181;50.974;18.244;2022-10-31T04:45:22;7.00;;;4.10;;
57345;SDS011;43181;50.974;18.244;2022-10-31T04:47:48;4.30;;;3.40;;
57345;SDS011;43181;50.974;18.244;2022-10-31T04:50:13;5.00;;;3.40;;
57345;SDS011;43181;50.974;18.244;2022-10-31T04:52:42;4.10;;;2.90;;
57345;SDS011;43181;50.974;18.244;2022-10-31T04:55:09;3.20;;;2.70;;
57345;SDS011;43181;50.974;18.244;2022-10-31T04:57:42;7.60;;;2.70;;
57345;SDS011;43181;50.974;18.244;2022-10-31T05:00:09;4.70;;;2.80;;
57345;SDS011;43181;50.974;18.244;2022-10-31T05:02:42;2.90;;;2.60;;
57345;SDS011;43181;50.974;18.244;2022-10-31T05:05:08;6.20;;;2.70;;
57345;SDS011;43181;50.974;18.244;2022-10-31T05:07:37;7.40;;;2.50;;
57345;SDS011;43181;50.974;18.244;2022-10-31T05:10:04;5.40;;;2.60;;
57345;SDS011;43181;50.974;18.244;2022-10-31T05:12:30;6.80;;;4.00;;
57345;SDS011;43181;50.974;18.244;2022-10-31T05:14:56;9.40;;;2.60;;
57345;SDS011;43181;50.974;18.244;2022-10-31T05:17:21;3.60;;;3.30;;
57345;SDS011;43181;50.974;18.244;2022-10-31T05:19:47;4.90;;;2.70;;
57345;SDS011;43181;50.974;18.244;2022-10-31T05:22:12;10.70;;;2.20;;
57345;SDS011;43181;50.974;18.244;2022-10-31T05:24:38;5.30;;;2.90;;
57345;SDS011;43181;50.974;18.244;2022-10-31T05:27:03;8.10;;;3.10;;
57345;SDS011;43181;50.974;18.244;2022-10-31T05:29:29;5.60;;;1.80;;
57345;SDS011;43181;50.974;18.244;2022-10-31T05:31:58;5.70;;;2.50;;
57345;SDS011;43181;50.974;18.244;2022-10-31T05:34:24;1.90;;;1.80;;
57345;SDS011;43181;50.974;18.244;2022-10-31T05:36:49;1.60;;;1.50;;
57345;SDS011;43181;50.974;18.244;2022-10-31T05:39:15;5.80;;;3.40;;
57345;SDS011;43181;50.974;18.244;2022-10-31T05:41:43;2.50;;;2.10;;
57345;SDS011;43181;50.974;18.244;2022-10-31T05:44:08;6.80;;;4.00;;
57345;SDS011;43181;50.974;18.244;2022-10-31T05:46:34;7.50;;;3.40;;
57345;SDS011;43181;50.974;18.244;2022-10-31T05:49:00;3.00;;;2.40;;
57345;SDS011;43181;50.974;18.244;2022-10-31T05:51:25;5.60;;;4.40;;
57345;SDS011;43181;50.974;18.244;2022-10-31T05:53:53;2.90;;;2.70;;
57345;SDS011;43181;50.974;18.244;2022-10-31T05:56:19;4.00;;;2.60;;
57345;SDS011;43181;50.974;18.244;2022-10-31T05:58:44;5.60;;;4.40;;
57345;SDS011;43181;50.974;18.244;2022-10-31T06:01:10;5.80;;;2.00;;
57345;SDS011;43181;50.974;18.244;2022-10-31T06:03:35;3.80;;;2.90;;
57345;SDS011;43181;50.974;18.244;2022-10-31T06:06:01;6.10;;;3.40;;
57345;SDS011;43181;50.974;18.244;2022-10-31T06:08:26;12.90;;;4.10;;
57345;SDS011;43181;50.974;18.244;2022-10-31T06:10:52;3.90;;;2.50;;
57345;SDS011;43181;50.974;18.244;2022-10-31T06:13:18;3.10;;;2.80;;
57345;SDS011;43181;50.974;18.244;2022-10-31T06:15:44;10.30;;;3.40;;
57345;SDS011;43181;50.974;18.244;2022-10-31T06:18:09;6.80;;;5.00;;
57345;SDS011;43181;50.974;18.244;2022-10-31T06:20:35;8.00;;;3.80;;
57345;SDS011;43181;50.974;18.244;2022-10-31T06:23:01;4.90;;;3.60;;
57345;SDS011;43181;50.974;18.244;2022-10-31T06:28:01;10.80;;;4.80;;
57345;SDS011;43181;50.974;18.244;2022-10-31T06:30:27;10.10;;;4.20;;
57345;SDS011;43181;50.974;18.244;2022-10-31T06:32:52;6.40;;;3.10;;
57345;SDS011;43181;50.974;18.244;2022-10-31T06:35:18;5.80;;;3.70;;
57345;SDS011;43181;50.974;18.244;2022-10-31T06:37:51;6.00;;;3.80;;
57345;SDS011;43181;50.974;18.244;2022-10-31T06:40:17;12.60;;;4.50;;
57345;SDS011;43181;50.974;18.244;2022-10-31T06:42:43;10.70;;;4.10;;
57345;SDS011;43181;50.974;18.244;2022-10-31T06:45:08;7.20;;;2.70;;
57345;SDS011;43181;50.974;18.244;2022-10-31T06:47:34;3.30;;;2.20;;
57345;SDS011;43181;50.974;18.244;2022-10-31T06:50:00;5.30;;;2.50;;
57345;SDS011;43181;50.974;18.244;2022-10-31T06:52:25;6.80;;;2.90;;
57345;SDS011;43181;50.974;18.244;2022-10-31T06:54:50;8.10;;;3.10;;
57345;SDS011;43181;50.974;18.244;2022-10-31T06:57:16;6.40;;;2.90;;
57345;SDS011;43181;50.974;18.244;2022-10-31T06:59:41;10.50;;;3.20;;
57345;SDS011;43181;50.974;18.244;2022-10-31T07:02:08;8.00;;;3.80;;
57345;SDS011;43181;50.974;18.244;2022-10-31T07:04:35;6.90;;;3.10;;
57345;SDS011;43181;50.974;18.244;2022-10-31T07:07:01;4.70;;;3.00;;
57345;SDS011;43181;50.974;18.244;2022-10-31T07:09:26;5.00;;;2.70;;
57345;SDS011;43181;50.974;18.244;2022-10-31T07:11:52;5.40;;;3.50;;
57345;SDS011;43181;50.974;18.244;2022-10-31T07:14:18;7.50;;;2.50;;
57345;SDS011;43181;50.974;18.244;2022-10-31T07:16:44;4.90;;;3.10;;
57345;SDS011;43181;50.974;18.244;2022-10-31T07:19:13;4.00;;;2.40;;
57345;SDS011;43181;50.974;18.244;2022-10-31T07:21:39;7.90;;;3.80;;
57345;SDS011;43181;50.974;18.244;2022-10-31T07:24:05;9.70;;;3.40;;
57345;SDS011;43181;50.974;18.244;2022-10-31T07:26:30;5.60;;;2.80;;
57345;SDS011;43181;50.974;18.244;2022-10-31T07:28:56;11.40;;;2.80;;
57345;SDS011;43181;50.974;18.244;2022-10-31T07:31:24;3.30;;;2.60;;
57345;SDS011;43181;50.974;18.244;2022-10-31T07:33:50;7.10;;;4.20;;
57345;SDS011;43181;50.974;18.244;2022-10-31T07:36:16;7.50;;;3.30;;
57345;SDS011;43181;50.974;18.244;2022-10-31T07:38:41;7.40;;;4.00;;
57345;SDS011;43181;50.974;18.244;2022-10-31T07:41:07;9.70;;;2.50;;
57345;SDS011;43181;50.974;18.244;2022-10-31T07:43:34;4.40;;;3.50;;
57345;SDS011;43181;50.974;18.244;2022-10-31T07:45:59;10.50;;;4.10;;
57345;SDS011;43181;50.974;18.244;2022-10-31T07:48:25;7.00;;;2.80;;
57345;SDS011;43181;50.974;18.244;2022-10-31T07:50:50;4.30;;;2.40;;
57345;SDS011;43181;50.974;18.244;2022-10-31T07:53:16;7.70;;;3.80;;
57345;SDS011;43181;50.974;18.244;2022-10-31T07:55:42;20.00;;;4.30;;
57345;SDS011;43181;50.974;18.244;2022-10-31T07:58:09;12.20;;;4.30;;
57345;SDS011;43181;50.974;18.244;2022-10-31T08:00:36;5.40;;;3.10;;
57345;SDS011;43181;50.974;18.244;2022-10-31T08:03:06;11.20;;;4.30;;
57345;SDS011;43181;50.974;18.244;2022-10-31T08:05:32;12.50;;;4.90;;
57345;SDS011;43181;50.974;18.244;2022-10-31T08:07:59;6.40;;;3.00;;
57345;SDS011;43181;50.974;18.244;2022-10-31T08:10:24;5.50;;;3.10;;
57345;SDS011;43181;50.974;18.244;2022-10-31T08:12:57;7.40;;;3.50;;
57345;SDS011;43181;50.974;18.244;2022-10-31T08:15:23;5.30;;;3.40;;
57345;SDS011;43181;50.974;18.244;2022-10-31T08:17:49;10.00;;;3.70;;
57345;SDS011;43181;50.974;18.244;2022-10-31T08:20:14;20.90;;;9.10;;
57345;SDS011;43181;50.974;18.244;2022-10-31T08:22:40;5.70;;;3.20;;
57345;SDS011;43181;50.974;18.244;2022-10-31T08:25:05;9.90;;;3.50;;
57345;SDS011;43181;50.974;18.244;2022-10-31T08:27:31;5.60;;;2.80;;
57345;SDS011;43181;50.974;18.244;2022-10-31T08:29:56;4.90;;;3.20;;
57345;SDS011;43181;50.974;18.244;2022-10-31T08:32:23;5.70;;;3.50;;
57345;SDS011;43181;50.974;18.244;2022-10-31T08:34:49;6.50;;;4.00;;
57345;SDS011;43181;50.974;18.244;2022-10-31T08:37:14;3.40;;;2.00;;
57345;SDS011;43181;50.974;18.244;2022-10-31T08:39:45;4.60;;;2.70;;
57345;SDS011;43181;50.974;18.244;2022-10-31T08:42:12;3.80;;;2.30;;
57345;SDS011;43181;50.974;18.244;2022-10-31T08:44:38;6.20;;;2.40;;
57345;SDS011;43181;50.974;18.244;2022-10-31T08:47:03;5.80;;;2.50;;
57345;SDS011;43181;50.974;18.244;2022-10-31T08:49:29;6.80;;;3.30;;
57345;SDS011;43181;50.974;18.244;2022-10-31T08:51:54;9.10;;;2.50;;
57345;SDS011;43181;50.974;18.244;2022-10-31T08:54:20;7.40;;;3.50;;
57345;SDS011;43181;50.974;18.244;2022-10-31T08:56:46;10.00;;;2.70;;
57345;SDS011;43181;50.974;18.244;2022-10-31T08:59:11;5.90;;;2.30;;
57345;SDS011;43181;50.974;18.244;2022-10-31T09:01:37;6.30;;;2.70;;
57345;SDS011;43181;50.974;18.244;2022-10-31T09:04:03;8.20;;;3.40;;
57345;SDS011;43181;50.974;18.244;2022-10-31T09:06:28;10.30;;;2.20;;
57345;SDS011;43181;50.974;18.244;2022-10-31T09:08:54;9.90;;;3.30;;
57345;SDS011;43181;50.974;18.244;2022-10-31T09:11:19;4.70;;;2.60;;
57345;SDS011;43181;50.974;18.244;2022-10-31T09:13:45;5.80;;;2.60;;
57345;SDS011;43181;50.974;18.244;2022-10-31T09:16:10;4.70;;;3.20;;
57345;SDS011;43181;50.974;18.244;2022-10-31T09:18:36;10.20;;;2.60;;
57345;SDS011;43181;50.974;18.244;2022-10-31T09:21:01;2.90;;;2.10;;
57345;SDS011;43181;50.974;18.244;2022-10-31T09:23:27;5.50;;;2.20;;
57345;SDS011;43181;50.974;18.244;2022-10-31T09:25:54;5.50;;;3.10;;
57345;SDS011;43181;50.974;18.244;2022-10-31T09:28:20;4.20;;;2.50;;
57345;SDS011;43181;50.974;18.244;2022-10-31T09:30:48;5.70;;;2.30;;
57345;SDS011;43181;50.974;18.244;2022-10-31T09:33:15;5.30;;;2.80;;
57345;SDS011;43181;50.974;18.244;2022-10-31T09:35:41;4.80;;;2.40;;
57345;SDS011;43181;50.974;18.244;2022-10-31T09:38:11;7.40;;;3.10;;
57345;SDS011;43181;50.974;18.244;2022-10-31T09:40:41;5.80;;;3.50;;
57345;SDS011;43181;50.974;18.244;2022-10-31T09:43:15;9.60;;;2.70;;
57345;SDS011;43181;50.974;18.244;2022-10-31T09:51:52;4.40;;;2.20;;
57345;SDS011;43181;50.974;18.244;2022-10-31T09:56:40;3.80;;;2.40;;
57345;SDS011;43181;50.974;18.244;2022-10-31T09:59:11;5.30;;;2.80;;
57345;SDS011;43181;50.974;18.244;2022-10-31T10:01:44;5.20;;;2.70;;
57345;SDS011;43181;50.974;18.244;2022-10-31T10:04:24;4.40;;;2.30;;
57345;SDS011;43181;50.974;18.244;2022-10-31T10:07:26;4.70;;;2.20;;
57345;SDS011;43181;50.974;18.244;2022-10-31T10:09:55;4.40;;;1.70;;
57345;SDS011;43181;50.974;18.244;2022-10-31T10:26:31;5.50;;;2.70;;
57345;SDS011;43181;50.974;18.244;2022-10-31T10:29:02;4.70;;;3.10;;
57345;SDS011;43181;50.974;18.244;2022-10-31T10:31:37;3.00;;;2.00;;
57345;SDS011;43181;50.974;18.244;2022-10-31T10:36:38;4.50;;;2.60;;
57345;SDS011;43181;50.974;18.244;2022-10-31T10:39:20;7.20;;;2.10;;
57345;SDS011;43181;50.974;18.244;2022-10-31T10:41:49;3.10;;;2.30;;
57345;SDS011;43181;50.974;18.244;2022-10-31T10:44:42;2.00;;;1.50;;
57345;SDS011;43181;50.974;18.244;2022-10-31T10:47:31;5.30;;;2.50;;
57345;SDS011;43181;50.974;18.244;2022-10-31T10:50:11;4.00;;;2.50;;
57345;SDS011;43181;50.974;18.244;2022-10-31T10:55:39;5.90;;;3.20;;
57345;SDS011;43181;50.974;18.244;2022-10-31T10:58:09;4.80;;;2.40;;
57345;SDS011;43181;50.974;18.244;2022-10-31T11:00:42;5.00;;;2.10;;
57345;SDS011;43181;50.974;18.244;2022-10-31T11:03:13;7.80;;;2.50;;
57345;SDS011;43181;50.974;18.244;2022-10-31T11:08:27;3.80;;;2.30;;
57345;SDS011;43181;50.974;18.244;2022-10-31T11:13:42;3.90;;;2.10;;
57345;SDS011;43181;50.974;18.244;2022-10-31T11:16:11;10.80;;;4.00;;
57345;SDS011;43181;50.974;18.244;2022-10-31T11:18:41;3.70;;;2.80;;
57345;SDS011;43181;50.974;18.244;2022-10-31T11:21:19;5.40;;;2.50;;
57345;SDS011;43181;50.974;18.244;2022-10-31T11:23:46;9.00;;;3.60;;
57345;SDS011;43181;50.974;18.244;2022-10-31T11:26:18;6.00;;;3.10;;
57345;SDS011;43181;50.974;18.244;2022-10-31T11:28:55;7.20;;;3.00;;
57345;SDS011;43181;50.974;18.244;2022-10-31T11:31:21;6.20;;;2.90;;
57345;SDS011;43181;50.974;18.244;2022-10-31T11:33:48;2.60;;;2.10;;
57345;SDS011;43181;50.974;18.244;2022-10-31T11:36:16;7.10;;;2.40;;
57345;SDS011;43181;50.974;18.244;2022-10-31T11:38:46;11.20;;;3.10;;
57345;SDS011;43181;50.974;18.244;2022-10-31T11:44:04;4.10;;;1.90;;
57345;SDS011;43181;50.974;18.244;2022-10-31T11:46:38;2.90;;;1.70;;
57345;SDS011;43181;50.974;18.244;2022-10-31T11:49:11;4.70;;;2.80;;
57345;SDS011;43181;50.974;18.244;2022-10-31T11:51:40;6.90;;;3.60;;
57345;SDS011;43181;50.974;18.244;2022-10-31T11:54:14;4.20;;;2.30;;
57345;SDS011;43181;50.974;18.244;2022-10-31T11:59:15;5.30;;;2.70;;
57345;SDS011;43181;50.974;18.244;2022-10-31T12:01:50;7.20;;;3.40;;
57345;SDS011;43181;50.974;18.244;2022-10-31T12:04:16;2.90;;;1.90;;
57345;SDS011;43181;50.974;18.244;2022-10-31T12:06:43;2.30;;;1.40;;
57345;SDS011;43181;50.974;18.244;2022-10-31T12:09:24;5.70;;;2.00;;
57345;SDS011;43181;50.974;18.244;2022-10-31T12:17:38;8.00;;;2.60;;
57345;SDS011;43181;50.974;18.244;2022-10-31T12:23:01;5.30;;;2.00;;
57345;SDS011;43181;50.974;18.244;2022-10-31T12:31:05;6.90;;;1.90;;
57345;SDS011;43181;50.974;18.244;2022-10-31T12:36:38;3.30;;;2.20;;
57345;SDS011;43181;50.974;18.244;2022-10-31T12:39:23;5.20;;;1.90;;
57345;SDS011;43181;50.974;18.244;2022-10-31T12:42:07;4.60;;;2.00;;
57345;SDS011;43181;50.974;18.244;2022-10-31T12:44:48;5.90;;;2.60;;
57345;SDS011;43181;50.974;18.244;2022-10-31T12:57:58;5.30;;;2.30;;
57345;SDS011;43181;50.974;18.244;2022-10-31T13:00:27;3.80;;;1.60;;
57345;SDS011;43181;50.974;18.244;2022-10-31T13:02:58;3.00;;;2.10;;
57345;SDS011;43181;50.974;18.244;2022-10-31T13:05:43;9.40;;;1.90;;
57345;SDS011;43181;50.974;18.244;2022-10-31T13:08:17;3.00;;;2.00;;
57345;SDS011;43181;50.974;18.244;2022-10-31T13:10:47;4.10;;;2.30;;
57345;SDS011;43181;50.974;18.244;2022-10-31T13:13:23;6.20;;;1.80;;
57345;SDS011;43181;50.974;18.244;2022-10-31T13:15:58;4.20;;;1.80;;
57345;SDS011;43181;50.974;18.244;2022-10-31T13:18:47;4.00;;;2.10;;
57345;SDS011;43181;50.974;18.244;2022-10-31T13:24:28;4.10;;;2.20;;
57345;SDS011;43181;50.974;18.244;2022-10-31T13:27:01;4.20;;;1.90;;
57345;SDS011;43181;50.974;18.244;2022-10-31T13:29:30;3.90;;;1.70;;
57345;SDS011;43181;50.974;18.244;2022-10-31T13:32:05;4.60;;;2.60;;
57345;SDS011;43181;50.974;18.244;2022-10-31T13:45:23;3.70;;;2.00;;
57345;SDS011;43181;50.974;18.244;2022-10-31T13:48:17;8.90;;;1.60;;
57345;SDS011;43181;50.974;18.244;2022-10-31T13:51:04;6.00;;;1.60;;
57345;SDS011;43181;50.974;18.244;2022-10-31T13:56:23;5.80;;;1.10;;
57345;SDS011;43181;50.974;18.244;2022-10-31T14:01:46;4.30;;;2.60;;
57345;SDS011;43181;50.974;18.244;2022-10-31T14:04:20;2.70;;;1.30;;
57345;SDS011;43181;50.974;18.244;2022-10-31T14:07:08;2.80;;;1.60;;
57345;SDS011;43181;50.974;18.244;2022-10-31T14:12:23;3.70;;;1.60;;
57345;SDS011;43181;50.974;18.244;2022-10-31T14:15:19;4.10;;;2.40;;
57345;SDS011;43181;50.974;18.244;2022-10-31T14:22:47;7.20;;;1.90;;
57345;SDS011;43181;50.974;18.244;2022-10-31T14:25:29;3.90;;;1.40;;
57345;SDS011;43181;50.974;18.244;2022-10-31T14:27:58;10.60;;;2.50;;
57345;SDS011;43181;50.974;18.244;2022-10-31T14:30:25;1.70;;;1.20;;
57345;SDS011;43181;50.974;18.244;2022-10-31T14:32:53;2.80;;;1.30;;
57345;SDS011;43181;50.974;18.244;2022-10-31T14:35:23;1.80;;;1.00;;
57345;SDS011;43181;50.974;18.244;2022-10-31T14:40:27;3.30;;;2.30;;
57345;SDS011;43181;50.974;18.244;2022-10-31T14:51:42;4.60;;;3.00;;
57345;SDS011;43181;50.974;18.244;2022-10-31T14:54:14;5.00;;;2.50;;
57345;SDS011;43181;50.974;18.244;2022-10-31T14:56:46;4.60;;;2.10;;
57345;SDS011;43181;50.974;18.244;2022-10-31T14:59:14;3.30;;;1.80;;
57345;SDS011;43181;50.974;18.244;2022-10-31T15:01:47;1.70;;;1.40;;
57345;SDS011;43181;50.974;18.244;2022-10-31T15:04:22;11.50;;;2.10;;
57345;SDS011;43181;50.974;18.244;2022-10-31T15:06:50;3.30;;;1.50;;
57345;SDS011;43181;50.974;18.244;2022-10-31T15:09:23;2.50;;;1.40;;
57345;SDS011;43181;50.974;18.244;2022-10-31T15:11:50;2.30;;;1.60;;
57345;SDS011;43181;50.974;18.244;2022-10-31T15:14:23;4.80;;;2.10;;
57345;SDS011;43181;50.974;18.244;2022-10-31T15:16:53;1.70;;;1.30;;
57345;SDS011;43181;50.974;18.244;2022-10-31T15:19:21;3.20;;;2.10;;
57345;SDS011;43181;50.974;18.244;2022-10-31T15:21:50;2.20;;;1.60;;
57345;SDS011;43181;50.974;18.244;2022-10-31T15:24:17;4.80;;;2.10;;
57345;SDS011;43181;50.974;18.244;2022-10-31T15:26:53;7.50;;;2.00;;
57345;SDS011;43181;50.974;18.244;2022-10-31T15:29:23;3.40;;;2.10;;
57345;SDS011;43181;50.974;18.244;2022-10-31T15:31:54;3.70;;;1.30;;
57345;SDS011;43181;50.974;18.244;2022-10-31T15:34:22;4.70;;;2.00;;
57345;SDS011;43181;50.974;18.244;2022-10-31T15:39:19;2.50;;;2.30;;
57345;SDS011;43181;50.974;18.244;2022-10-31T15:41:52;16.10;;;3.20;;
57345;SDS011;43181;50.974;18.244;2022-10-31T15:44:21;10.40;;;2.10;;
57345;SDS011;43181;50.974;18.244;2022-10-31T15:47:06;7.20;;;2.10;;
57345;SDS011;43181;50.974;18.244;2022-10-31T15:49:41;1.30;;;1.20;;
57345;SDS011;43181;50.974;18.244;2022-10-31T15:52:28;4.10;;;1.20;;
57345;SDS011;43181;50.974;18.244;2022-10-31T15:54:58;2.40;;;1.30;;
57345;SDS011;43181;50.974;18.244;2022-10-31T15:57:26;2.10;;;2.00;;
57345;SDS011;43181;50.974;18.244;2022-10-31T15:59:52;6.50;;;2.90;;
57345;SDS011;43181;50.974;18.244;2022-10-31T16:02:22;1.70;;;1.00;;
57345;SDS011;43181;50.974;18.244;2022-10-31T16:04:50;2.20;;;1.40;;
57345;SDS011;43181;50.974;18.244;2022-10-31T16:07:21;2.90;;;2.00;;
57345;SDS011;43181;50.974;18.244;2022-10-31T16:09:57;7.50;;;4.00;;
57345;SDS011;43181;50.974;18.244;2022-10-31T16:12:24;7.60;;;3.40;;
57345;SDS011;43181;50.974;18.244;2022-10-31T16:14:54;6.20;;;2.90;;
57345;SDS011;43181;50.974;18.244;2022-10-31T16:17:21;5.30;;;3.40;;
57345;SDS011;43181;50.974;18.244;2022-10-31T16:22:25;15.00;;;4.20;;
57345;SDS011;43181;50.974;18.244;2022-10-31T16:24:58;41.70;;;12.80;;
57345;SDS011;43181;50.974;18.244;2022-10-31T16:27:25;48.60;;;16.60;;
57345;SDS011;43181;50.974;18.244;2022-10-31T16:29:54;50.40;;;22.40;;
57345;SDS011;43181;50.974;18.244;2022-10-31T16:32:25;56.10;;;26.90;;
57345;SDS011;43181;50.974;18.244;2022-10-31T16:35:01;54.10;;;19.80;;
57345;SDS011;43181;50.974;18.244;2022-10-31T16:37:42;19.80;;;8.70;;
57345;SDS011;43181;50.974;18.244;2022-10-31T16:40:12;20.70;;;11.90;;
57345;SDS011;43181;50.974;18.244;2022-10-31T16:42:39;47.90;;;20.70;;
57345;SDS011;43181;50.974;18.244;2022-10-31T16:45:06;39.90;;;17.90;;
57345;SDS011;43181;50.974;18.244;2022-10-31T16:47:32;11.60;;;8.60;;
57345;SDS011;43181;50.974;18.244;2022-10-31T16:49:57;14.20;;;6.70;;
57345;SDS011;43181;50.974;18.244;2022-10-31T16:52:25;6.40;;;4.50;;
57345;SDS011;43181;50.974;18.244;2022-10-31T16:54:51;6.00;;;4.30;;
57345;SDS011;43181;50.974;18.244;2022-10-31T16:57:17;16.80;;;3.80;;
57345;SDS011;43181;50.974;18.244;2022-10-31T16:59:47;8.40;;;4.40;;